CheckWX is a tool to help pilots better visualize weather data.  It is not intended as a substitute for an official pre-flight weather briefing.

12:16:13 UTC

VELR TAF
North Lakhimpur Airport
Lilabari, India
TAF VELR 290800Z 2909/2918 18007KT 5000 HZ FEW020 BECMG 2913/2915 28005KT 3000 HZ FEW018 FEW025CB SCT100

Mar-29@
09:00 UTC

Mar-29 @ 09:00 UTC

Mar-29@
13:00 UTC

Mar-29 @ 13:00 UTC

TAF VELR 290800Z 2909/2918 18007KT 5000 HZ FEW020
Wind
  • 180° at 7 KTS
Conditions
Haze
Cloud Levels
  • Few at 2,000' AGL

Mar-29@
13:00 UTC

Mar-29 @ 13:00 UTC

Mar-29@
18:00 UTC

Mar-29 @ 18:00 UTC

BECMG 2913/2915 28005KT 3000 HZ FEW018 FEW025CB SCT100

Becoming

Becoming Conditions expected by Sun, Mar 29, 2020 @ 15:00 UTC

Wind
  • 280° at 5 KTS
Conditions
Haze
Cloud Levels
  • Few at 1,800' AGL
  • Few at 2,500' AGL
  • Scattered at 10,000' AGL